Terminal Aerodrome Forecast
Issued by NWS Albuquerque, NM

Home | Current Version | Previous Version | Text Only | Print | Product List | Glossary On
Versions: 1 2 3 4 5 6 7 8 9 10 11 12 13 14
000
FTUS45 KABQ 221734
TAFABQ
TAF
KABQ 221734Z 2218/2318 35006KT P6SM FEW120 FEW250
     FM221900 31010G18KT P6SM FEW120
     FM222100 31020G28KT P6SM SCT120
     FM230200 35008KT P6SM SKC
     FM230900 07015G25KT P6SM FEW080
     FM231200 07020G30KT P6SM FEW080=

USA.gov is the U.S. government's official web portal to all federal, state and local government web resources and services.